Time;durP1;ratioP1;P1;durP2;ratioP2;P2;SDS_P1;SDS_P2;PMS_P1;PMS_P2;Temp;Humidity;BMP_temperature;BMP_pressure;BME280_temperature;BME280_humidity;BME280_pressure;Samples;Min_cycle;Max_cycle;Signal;HPM_P1;HPM_P2
2022/05/01 00:02:20;;;;;;;6.10;5.55;;;13.60;83.20;;;;;;5011510;28;20227;-63
2022/05/01 00:04:47;;;;;;;7.35;5.78;;;13.60;83.40;;;;;;5011235;28;20222;-63
2022/05/01 00:07:13;;;;;;;6.07;5.47;;;13.60;83.10;;;;;;5003318;28;20588;-64
2022/05/01 00:09:40;;;;;;;8.27;5.68;;;13.60;82.70;;;;;;5015739;28;20221;-63
2022/05/01 00:12:09;;;;;;;7.75;4.88;;;13.50;82.80;;;;;;5015904;28;20233;-63
2022/05/01 00:14:36;;;;;;;6.25;5.20;;;13.50;83.00;;;;;;5015585;28;20244;-64
2022/05/01 00:17:04;;;;;;;8.10;6.18;;;13.50;83.00;;;;;;5016318;28;20571;-63
2022/05/01 00:19:30;;;;;;;5.90;5.30;;;13.50;82.90;;;;;;5015969;28;20715;-63
2022/05/01 00:21:58;;;;;;;6.05;5.28;;;13.40;82.90;;;;;;5015623;28;20226;-63
2022/05/01 00:24:25;;;;;;;6.80;5.60;;;13.40;83.00;;;;;;5015746;28;20221;-63
2022/05/01 00:26:52;;;;;;;8.80;5.80;;;13.40;82.70;;;;;;5015467;28;20691;-64
2022/05/01 00:29:21;;;;;;;6.22;5.53;;;13.40;82.60;;;;;;5016084;28;20237;-63
2022/05/01 00:31:47;;;;;;;6.28;5.68;;;13.30;82.60;;;;;;5015428;28;20364;-64
2022/05/01 00:36:58;;;;;;;5.95;4.90;;;13.30;82.60;;;;;;5015677;28;20360;-63
2022/05/01 00:39:25;;;;;;;7.05;4.93;;;13.30;82.60;;;;;;5015733;28;20806;-63
2022/05/01 00:41:52;;;;;;;5.80;4.75;;;13.30;82.70;;;;;;5015210;28;20226;-63
2022/05/01 00:44:21;;;;;;;5.20;4.70;;;13.20;82.80;;;;;;5015510;28;20233;-64
2022/05/01 00:46:49;;;;;;;6.10;5.50;;;13.20;82.80;;;;;;5015046;28;20276;-63
2022/05/01 00:49:18;;;;;;;10.35;5.80;;;13.10;82.80;;;;;;5015245;28;20305;-63
2022/05/01 00:51:48;;;;;;;6.22;5.63;;;13.10;82.80;;;;;;5014808;28;20226;-63
2022/05/01 00:54:17;;;;;;;4.78;4.40;;;13.10;82.70;;;;;;5002856;28;20271;-64
2022/05/01 00:56:46;;;;;;;8.57;5.70;;;13.10;82.80;;;;;;5014905;28;20218;-64
2022/05/01 00:59:13;;;;;;;7.75;5.13;;;13.10;83.00;;;;;;5015371;28;20222;-64
2022/05/01 01:01:43;;;;;;;7.40;5.35;;;13.00;83.00;;;;;;5014777;28;20257;-63
2022/05/01 01:04:10;;;;;;;7.70;4.78;;;13.10;83.10;;;;;;5005531;28;20232;-63
2022/05/01 01:06:37;;;;;;;5.28;4.78;;;13.10;83.10;;;;;;5014169;28;20277;-64
2022/05/01 01:09:05;;;;;;;6.00;5.50;;;13.10;83.00;;;;;;5014895;28;20297;-64
2022/05/01 01:11:32;;;;;;;5.72;5.05;;;13.10;82.90;;;;;;5014964;28;20237;-64
2022/05/01 01:14:00;;;;;;;7.78;6.07;;;13.10;82.70;;;;;;5014728;28;20237;-64
2022/05/01 01:16:27;;;;;;;7.32;5.32;;;13.10;82.50;;;;;;5015244;28;20221;-64
2022/05/01 01:18:55;;;;;;;6.65;5.65;;;13.10;82.70;;;;;;5014727;28;20226;-63
2022/05/01 01:21:23;;;;;;;8.65;6.10;;;13.10;82.70;;;;;;5014907;28;20226;-64
2022/05/01 01:23:52;;;;;;;6.55;4.85;;;13.10;82.60;;;;;;5014456;28;20230;-64
2022/05/01 01:26:19;;;;;;;10.18;5.30;;;13.00;82.70;;;;;;5014875;28;20218;-63
2022/05/01 01:28:47;;;;;;;6.82;6.13;;;13.00;82.90;;;;;;5013883;28;20221;-63
2022/05/01 01:34:05;;;;;;;6.10;4.93;;;12.90;82.90;;;;;;5004475;28;20668;-63
2022/05/01 01:36:36;;;;;;;7.32;5.68;;;12.90;82.80;;;;;;5014637;28;20237;-63
2022/05/01 01:39:03;;;;;;;5.80;4.53;;;13.00;82.60;;;;;;5014101;28;20228;-63
2022/05/01 01:41:33;;;;;;;8.73;5.70;;;13.00;82.60;;;;;;5014451;28;20234;-63
2022/05/01 01:44:00;;;;;;;7.25;6.03;;;12.90;82.40;;;;;;5013834;28;20312;-64
2022/05/01 01:46:28;;;;;;;6.72;5.57;;;13.00;82.40;;;;;;5014253;28;20225;-64
2022/05/01 01:48:55;;;;;;;7.20;6.50;;;13.00;82.30;;;;;;5013737;28;20248;-63
2022/05/01 01:51:22;;;;;;;6.53;5.85;;;13.00;82.30;;;;;;5014352;28;20237;-64
2022/05/01 01:53:52;;;;;;;8.07;5.75;;;12.90;82.30;;;;;;5013343;28;20305;-64
2022/05/01 01:56:19;;;;;;;6.88;5.95;;;12.90;82.20;;;;;;5014230;28;20685;-63
2022/05/01 01:58:45;;;;;;;6.75;5.70;;;13.00;82.20;;;;;;5013836;28;20221;-63
2022/05/01 02:01:13;;;;;;;5.88;5.38;;;13.00;82.10;;;;;;5014286;28;20267;-64
2022/05/01 02:03:40;;;;;;;5.55;5.10;;;12.90;82.10;;;;;;5004171;28;20218;-64
2022/05/01 02:06:09;;;;;;;4.75;4.15;;;12.90;82.00;;;;;;5013819;28;20222;-63
2022/05/01 02:08:36;;;;;;;5.78;4.40;;;12.90;82.00;;;;;;5013919;28;20301;-63
2022/05/01 02:11:06;;;;;;;9.18;4.97;;;12.90;81.90;;;;;;5013530;28;20226;-63
2022/05/01 02:13:33;;;;;;;5.65;4.75;;;12.80;81.80;;;;;;5013858;28;20225;-63
2022/05/01 02:16:00;;;;;;;5.07;4.60;;;12.90;82.00;;;;;;5013510;28;20225;-63
2022/05/01 02:18:27;;;;;;;7.32;5.30;;;12.80;82.10;;;;;;5012972;28;20791;-63
2022/05/01 02:23:38;;;;;;;7.18;4.22;;;12.70;81.70;;;;;;5002032;28;20568;-64
2022/05/01 02:26:06;;;;;;;5.35;4.57;;;12.70;81.60;;;;;;5013232;28;20230;-63
2022/05/01 02:28:33;;;;;;;5.88;4.88;;;12.70;81.70;;;;;;5013574;28;20218;-64
2022/05/01 02:31:00;;;;;;;4.65;4.25;;;12.70;81.80;;;;;;5013114;28;20696;-65
2022/05/01 02:33:27;;;;;;;5.03;4.63;;;12.70;82.00;;;;;;5008095;28;20219;-63
2022/05/01 02:35:54;;;;;;;5.80;5.15;;;12.70;82.10;;;;;;5007833;28;20218;-63
2022/05/01 02:38:20;;;;;;;5.07;4.57;;;12.60;82.30;;;;;;5013745;28;20229;-63
2022/05/01 02:40:47;;;;;;;8.15;5.10;;;12.60;82.50;;;;;;5013031;28;20226;-62
2022/05/01 02:43:15;;;;;;;7.72;4.50;;;12.60;82.60;;;;;;5013460;28;20226;-63
2022/05/01 02:45:42;;;;;;;6.82;4.50;;;12.60;82.60;;;;;;5013422;28;20283;-64
2022/05/01 02:48:09;;;;;;;8.18;4.82;;;12.50;82.50;;;;;;5012943;28;20593;-64
2022/05/01 02:50:36;;;;;;;5.85;4.45;;;12.50;82.80;;;;;;5013138;28;20225;-63
2022/05/01 02:53:04;;;;;;;7.28;4.88;;;12.50;82.80;;;;;;5012786;28;20237;-63
2022/05/01 02:55:32;;;;;;;5.13;4.43;;;12.50;82.80;;;;;;5013177;28;20231;-63
2022/05/01 02:57:58;;;;;;;6.93;5.43;;;12.40;83.10;;;;;;5012775;28;20234;-63
2022/05/01 03:00:27;;;;;;;4.53;3.78;;;12.40;83.20;;;;;;5013201;28;20226;-63
2022/05/01 03:02:56;;;;;;;4.90;4.18;;;12.40;83.30;;;;;;5003374;28;20253;-62
2022/05/01 03:05:24;;;;;;;7.65;4.30;;;12.40;83.50;;;;;;5011066;28;20280;-64
2022/05/01 03:07:51;;;;;;;10.82;4.80;;;12.40;83.90;;;;;;5012880;28;20230;-63
2022/05/01 03:10:18;;;;;;;5.10;4.63;;;12.40;84.00;;;;;;5013098;28;20228;-63
2022/05/01 03:12:45;;;;;;;6.75;5.20;;;12.40;84.30;;;;;;5013078;28;20237;-63
2022/05/01 03:15:14;;;;;;;5.70;5.00;;;12.30;84.50;;;;;;5012510;28;20226;-64
2022/05/01 03:23:14;;;;;;;6.22;4.35;;;12.30;85.60;;;;;;5024130;28;20237;-63
2022/05/01 03:25:41;;;;;;;7.30;5.20;;;12.30;85.80;;;;;;5013042;28;20218;-63
2022/05/01 03:28:08;;;;;;;6.07;5.47;;;12.20;86.30;;;;;;5013015;28;20576;-63
2022/05/01 03:30:36;;;;;;;6.57;4.15;;;12.20;86.90;;;;;;5015881;28;20249;-63
2022/05/01 03:33:07;;;;;;;6.50;5.18;;;12.20;87.00;;;;;;5014809;28;20226;-63
2022/05/01 03:35:37;;;;;;;6.53;4.93;;;12.20;87.40;;;;;;5009234;28;20221;-63
2022/05/01 03:38:04;;;;;;;6.90;4.80;;;12.10;87.80;;;;;;5016738;28;20230;-63
2022/05/01 03:40:33;;;;;;;7.00;4.75;;;12.00;88.10;;;;;;5016411;28;21692;-64
2022/05/01 03:43:00;;;;;;;5.18;4.60;;;12.00;88.50;;;;;;4995000;28;20305;-62
2022/05/01 03:45:26;;;;;;;6.78;5.15;;;12.00;88.70;;;;;;4994263;28;20257;-63
2022/05/01 03:47:53;;;;;;;8.20;5.07;;;12.00;89.10;;;;;;4994749;28;20237;-64
2022/05/01 03:50:21;;;;;;;5.22;4.88;;;11.90;89.10;;;;;;5012910;28;20297;-64
2022/05/01 03:52:48;;;;;;;8.98;4.70;;;11.90;89.10;;;;;;5015993;28;20673;-62
2022/05/01 03:55:15;;;;;;;6.15;5.63;;;11.90;89.50;;;;;;5015499;28;20226;-64
2022/05/01 03:57:43;;;;;;;5.40;4.90;;;11.90;89.40;;;;;;5016127;28;20221;-64
2022/05/01 04:00:18;;;;;;;7.57;5.60;;;11.90;89.30;;;;;;5016164;28;20227;-63
2022/05/01 04:02:46;;;;;;;6.80;4.03;;;11.90;89.30;;;;;;5016053;28;20752;-63
2022/05/01 04:05:14;;;;;;;12.10;5.20;;;11.80;89.50;;;;;;5016538;28;20233;-63
2022/05/01 04:07:44;;;;;;;6.22;4.70;;;11.80;89.90;;;;;;5004965;28;20239;-63
2022/05/01 04:10:12;;;;;;;5.97;5.43;;;11.80;90.00;;;;;;4996835;28;20542;-62
2022/05/01 04:12:41;;;;;;;7.30;5.53;;;11.70;90.10;;;;;;5012289;28;20242;-63
2022/05/01 04:15:09;;;;;;;5.93;5.35;;;11.70;90.20;;;;;;5007318;28;20229;-63
2022/05/01 04:17:39;;;;;;;7.18;4.90;;;11.80;90.20;;;;;;5015834;28;20234;-62
2022/05/01 04:20:09;;;;;;;6.47;5.80;;;11.80;90.30;;;;;;5016173;28;20305;-63
2022/05/01 04:22:43;;;;;;;5.68;5.18;;;11.70;90.30;;;;;;5015505;28;20226;-62
2022/05/01 04:25:16;;;;;;;8.38;5.45;;;11.70;90.40;;;;;;5016319;28;20226;-63
2022/05/01 04:27:44;;;;;;;7.68;5.30;;;11.70;90.50;;;;;;5015485;28;20233;-63
2022/05/01 04:30:12;;;;;;;6.00;5.25;;;11.60;90.40;;;;;;5016040;28;20233;-63
2022/05/01 04:32:53;;;;;;;6.20;5.70;;;11.60;90.40;;;;;;5015495;28;20256;-64
2022/05/01 04:35:28;;;;;;;6.35;5.75;;;11.50;90.60;;;;;;5007504;28;20232;-63
2022/05/01 04:37:59;;;;;;;6.60;4.47;;;11.50;90.60;;;;;;5015456;28;20218;-62
2022/05/01 04:40:28;;;;;;;7.05;6.35;;;11.60;90.70;;;;;;5015223;28;20226;-63
2022/05/01 04:43:01;;;;;;;5.60;5.10;;;11.60;90.70;;;;;;5015135;28;20261;-64
2022/05/01 04:45:28;;;;;;;6.97;4.63;;;11.60;90.80;;;;;;5015853;28;20245;-63
2022/05/01 04:47:55;;;;;;;6.18;5.10;;;11.60;90.80;;;;;;5015206;28;20234;-64
2022/05/01 04:50:22;;;;;;;8.10;5.45;;;11.70;90.70;;;;;;5015931;28;20226;-62
2022/05/01 04:52:50;;;;;;;5.55;4.50;;;11.80;90.60;;;;;;5015160;28;20237;-63
2022/05/01 04:55:21;;;;;;;8.30;4.95;;;11.70;90.50;;;;;;5015424;28;20304;-63
2022/05/01 04:57:49;;;;;;;5.60;5.10;;;11.80;90.50;;;;;;5015022;28;20222;-63
2022/05/01 05:00:18;;;;;;;8.27;5.22;;;11.80;90.40;;;;;;5015530;28;20222;-63
2022/05/01 05:02:48;;;;;;;6.65;5.20;;;11.90;90.40;;;;;;5014966;28;20249;-63
2022/05/01 05:05:16;;;;;;;6.10;5.55;;;11.80;90.30;;;;;;5015514;28;20220;-63
2022/05/01 05:07:43;;;;;;;10.07;5.68;;;11.90;90.30;;;;;;5014843;28;20233;-63
2022/05/01 05:10:11;;;;;;;5.22;4.72;;;12.00;90.20;;;;;;5015405;28;20222;-63
2022/05/01 05:12:42;;;;;;;5.22;4.70;;;12.00;90.00;;;;;;5014687;28;20309;-63
2022/05/01 05:15:10;;;;;;;4.88;4.43;;;12.00;89.60;;;;;;5015134;28;20226;-63
2022/05/01 05:17:39;;;;;;;4.68;4.28;;;12.10;89.30;;;;;;5014766;28;20226;-63
2022/05/01 05:20:09;;;;;;;8.60;6.93;;;12.20;89.20;;;;;;5015191;28;20230;-62
2022/05/01 05:22:38;;;;;;;6.00;5.38;;;12.20;89.10;;;;;;5014717;28;20664;-63
2022/05/01 05:25:09;;;;;;;6.88;4.53;;;12.30;88.80;;;;;;5014918;28;20225;-62
2022/05/01 05:27:37;;;;;;;5.35;4.82;;;12.40;88.50;;;;;;5014631;28;20222;-63
2022/05/01 05:30:07;;;;;;;5.32;4.85;;;12.40;88.50;;;;;;5014794;28;20276;-62
2022/05/01 05:32:34;;;;;;;5.10;4.60;;;12.40;88.10;;;;;;5014760;28;20309;-62
2022/05/01 05:35:01;;;;;;;5.50;4.25;;;12.50;88.00;;;;;;5014387;28;20232;-62
2022/05/01 05:37:28;;;;;;;5.22;4.63;;;12.60;87.80;;;;;;5014806;28;20305;-63
2022/05/01 05:39:56;;;;;;;8.85;5.00;;;12.70;87.80;;;;;;5014543;28;20557;-63
2022/05/01 05:42:23;;;;;;;6.15;5.55;;;12.70;87.40;;;;;;5014732;28;20253;-63
2022/05/01 05:44:50;;;;;;;6.18;5.45;;;12.70;87.30;;;;;;5014349;28;20325;-63
2022/05/01 05:47:19;;;;;;;6.50;5.43;;;12.80;86.90;;;;;;5014762;28;20236;-63
2022/05/01 05:49:48;;;;;;;12.18;6.97;;;12.90;86.60;;;;;;5014054;28;20230;-63
2022/05/01 05:52:17;;;;;;;4.82;4.40;;;13.00;86.10;;;;;;5014481;28;20556;-63
2022/05/01 05:54:45;;;;;;;5.47;4.70;;;13.10;86.60;;;;;;5013974;28;20572;-63
2022/05/01 05:57:12;;;;;;;4.75;4.35;;;13.20;85.70;;;;;;5014249;28;20226;-63
2022/05/01 05:59:39;;;;;;;3.47;3.17;;;13.40;85.70;;;;;;5014160;28;20229;-63
2022/05/01 06:02:11;;;;;;;5.25;3.72;;;13.50;85.20;;;;;;5014053;28;20288;-63
2022/05/01 06:04:41;;;;;;;6.75;5.15;;;13.60;84.10;;;;;;5014312;28;20237;-63
2022/05/01 06:07:08;;;;;;;10.02;4.75;;;13.70;83.20;;;;;;5014232;28;20249;-63
2022/05/01 06:09:36;;;;;;;4.72;4.15;;;13.80;82.40;;;;;;5014017;28;20233;-63
2022/05/01 06:12:04;;;;;;;4.93;4.32;;;14.00;82.00;;;;;;5013742;28;20312;-63
2022/05/01 06:14:30;;;;;;;4.32;3.90;;;14.00;81.40;;;;;;5013807;28;20233;-63
2022/05/01 06:16:57;;;;;;;4.20;3.80;;;14.10;81.40;;;;;;5013669;28;20226;-63
2022/05/01 06:19:24;;;;;;;7.00;4.15;;;14.20;81.50;;;;;;5014261;28;20226;-64
2022/05/01 06:21:52;;;;;;;5.65;4.57;;;14.30;81.70;;;;;;5013345;28;20241;-64
2022/05/01 06:24:19;;;;;;;5.20;4.70;;;14.40;81.40;;;;;;5014008;28;20221;-63
2022/05/01 06:26:46;;;;;;;9.38;4.97;;;14.50;81.40;;;;;;5013675;28;20296;-62
2022/05/01 06:29:13;;;;;;;7.68;4.00;;;14.60;81.50;;;;;;5013782;28;20226;-63
2022/05/01 06:31:41;;;;;;;4.40;4.10;;;14.60;81.60;;;;;;5013841;28;20229;-63
2022/05/01 06:34:10;;;;;;;6.45;5.25;;;14.70;81.90;;;;;;5013264;28;20465;-63
2022/05/01 06:36:37;;;;;;;5.25;4.72;;;14.80;82.00;;;;;;5013826;28;20218;-63
2022/05/01 06:39:07;;;;;;;6.10;4.80;;;14.90;82.10;;;;;;5013343;28;20218;-63
2022/05/01 06:41:34;;;;;;;4.87;4.47;;;15.00;82.30;;;;;;5013507;28;20483;-64
2022/05/01 06:44:01;;;;;;;9.43;5.07;;;15.10;81.90;;;;;;5013445;28;20469;-64
2022/05/01 06:46:28;;;;;;;5.37;4.90;;;15.20;81.80;;;;;;5013734;28;20469;-63
2022/05/01 06:48:55;;;;;;;7.30;5.20;;;15.20;80.50;;;;;;5013005;28;20484;-64
2022/05/01 06:51:23;;;;;;;9.27;5.60;;;15.30;80.10;;;;;;5013553;28;20865;-63
2022/05/01 06:53:52;;;;;;;6.70;4.63;;;15.40;79.70;;;;;;5013126;28;20823;-64
2022/05/01 06:56:20;;;;;;;6.07;5.57;;;15.40;79.10;;;;;;5013312;28;20485;-62
2022/05/01 06:58:47;;;;;;;7.23;4.70;;;15.40;78.90;;;;;;5013150;28;20456;-62
2022/05/01 07:01:14;;;;;;;6.63;4.70;;;15.50;78.30;;;;;;5013031;28;20955;-64
2022/05/01 07:03:42;;;;;;;5.23;4.67;;;15.50;78.20;;;;;;5013030;28;20472;-64
2022/05/01 07:06:09;;;;;;;7.43;4.80;;;15.60;78.20;;;;;;5012953;28;20816;-63
2022/05/01 07:08:35;;;;;;;6.57;4.90;;;15.60;78.00;;;;;;5013510;28;20468;-63
2022/05/01 07:11:02;;;;;;;5.53;3.80;;;15.70;77.90;;;;;;5013041;28;20947;-63
2022/05/01 07:13:30;;;;;;;8.60;4.80;;;15.80;78.20;;;;;;5013142;28;20475;-63
2022/05/01 07:15:57;;;;;;;5.27;4.50;;;15.80;77.90;;;;;;5012692;28;20990;-64
2022/05/01 07:18:24;;;;;;;4.90;4.10;;;15.90;77.30;;;;;;5013412;28;20469;-64
2022/05/01 07:20:51;;;;;;;7.13;4.93;;;16.00;76.90;;;;;;5012786;28;20480;-64
2022/05/01 07:23:21;;;;;;;4.50;4.03;;;16.10;76.60;;;;;;5013153;28;20471;-64
2022/05/01 07:25:48;;;;;;;5.13;4.63;;;16.20;76.00;;;;;;5013289;28;20465;-64
2022/05/01 07:28:15;;;;;;;13.23;4.80;;;16.30;75.30;;;;;;5012762;28;21256;-64
2022/05/01 07:30:44;;;;;;;5.30;4.00;;;16.40;74.10;;;;;;5013135;28;20987;-64
2022/05/01 07:33:11;;;;;;;6.73;4.30;;;16.50;74.10;;;;;;5012880;28;20466;-63
2022/05/01 07:35:39;;;;;;;4.60;3.77;;;16.60;73.90;;;;;;5012792;28;20959;-63
2022/05/01 07:38:06;;;;;;;4.63;4.10;;;16.70;73.80;;;;;;5012954;28;20497;-62
2022/05/01 07:40:32;;;;;;;4.63;4.23;;;16.80;73.80;;;;;;5013085;28;20466;-63
2022/05/01 07:42:59;;;;;;;3.47;3.17;;;16.80;73.00;;;;;;5012457;28;20467;-63
2022/05/01 07:45:26;;;;;;;4.87;4.47;;;16.90;72.60;;;;;;5013128;28;20466;-63
2022/05/01 07:47:54;;;;;;;4.53;3.80;;;17.00;71.90;;;;;;5012751;28;20471;-63
2022/05/01 07:50:22;;;;;;;3.73;2.67;;;17.00;71.30;;;;;;5012928;28;20480;-63
2022/05/01 07:52:49;;;;;;;4.37;3.50;;;17.10;70.90;;;;;;5012973;28;20473;-63
2022/05/01 07:55:16;;;;;;;4.60;4.10;;;17.20;70.60;;;;;;5012479;28;20540;-63
2022/05/01 07:57:43;;;;;;;5.10;3.33;;;17.30;70.60;;;;;;5012896;28;20465;-63
2022/05/01 08:00:11;;;;;;;5.93;4.17;;;17.30;70.50;;;;;;5012649;28;20468;-64
2022/05/01 08:04:27;;;;;;;4.13;3.60;;;17.40;69.10;;;;;;5012712;28;20474;-62
2022/05/01 08:05:28;;;;;;;5.90;4.30;;;17.50;69.20;;;;;;5012508;28;20515;-64
2022/05/01 08:07:55;;;;;;;6.87;4.37;;;17.50;69.50;;;;;;5012721;28;20462;-61
2022/05/01 08:10:22;;;;;;;3.67;3.17;;;17.60;68.60;;;;;;5012197;28;20506;-63
2022/05/01 08:12:49;;;;;;;4.43;3.13;;;17.60;68.70;;;;;;5012894;28;20473;-62
2022/05/01 08:15:17;;;;;;;3.17;2.87;;;17.60;68.60;;;;;;5012246;28;20461;-63
2022/05/01 08:17:44;;;;;;;4.50;3.90;;;17.70;67.60;;;;;;5015973;28;20810;-63
2022/05/01 08:23:04;;;;;;;6.00;3.90;;;17.70;66.90;;;;;;5016247;28;20552;-63
2022/05/01 08:25:31;;;;;;;6.57;4.80;;;17.70;66.20;;;;;;5015752;28;20461;-63
2022/05/01 08:27:59;;;;;;;3.70;3.00;;;17.80;66.00;;;;;;5016032;28;20468;-63
2022/05/01 08:30:30;;;;;;;3.77;3.37;;;17.80;66.90;;;;;;5015257;28;20467;-63
2022/05/01 08:32:59;;;;;;;3.83;3.53;;;17.80;65.70;;;;;;5015933;28;20472;-63
2022/05/01 08:35:32;;;;;;;3.67;3.37;;;17.80;64.40;;;;;;5015424;28;20529;-64
2022/05/01 08:38:01;;;;;;;3.87;3.53;;;17.80;64.50;;;;;;5015746;28;20479;-63
2022/05/01 08:40:32;;;;;;;4.17;3.40;;;17.70;64.00;;;;;;5015326;28;21216;-63
2022/05/01 08:43:02;;;;;;;6.37;3.10;;;17.70;63.50;;;;;;5015634;28;20558;-63
2022/05/01 08:45:45;;;;;;;5.20;3.40;;;17.70;63.50;;;;;;5015366;28;20492;-64
2022/05/01 08:48:20;;;;;;;3.73;3.30;;;17.70;63.70;;;;;;5015220;28;20471;-63
2022/05/01 08:50:51;;;;;;;3.23;3.00;;;17.70;63.80;;;;;;5015338;28;20474;-63
2022/05/01 08:53:22;;;;;;;3.17;2.80;;;17.70;63.90;;;;;;5015290;28;20470;-63
2022/05/01 08:55:54;;;;;;;3.47;3.17;;;17.60;64.10;;;;;;5015506;28;20477;-63
2022/05/01 08:58:23;;;;;;;6.83;3.37;;;17.60;64.30;;;;;;5015047;28;20971;-62
2022/05/01 09:00:53;;;;;;;4.30;3.90;;;17.60;63.60;;;;;;5015273;28;20489;-63
2022/05/01 09:03:23;;;;;;;3.83;3.43;;;17.60;63.70;;;;;;5014990;28;20466;-63
2022/05/01 09:05:53;;;;;;;3.67;3.30;;;17.50;63.60;;;;;;5015360;28;20801;-63
2022/05/01 09:08:23;;;;;;;3.10;2.73;;;17.50;63.90;;;;;;5015000;28;20464;-63
2022/05/01 09:10:54;;;;;;;3.57;3.27;;;17.50;64.00;;;;;;5015051;28;20498;-63
2022/05/01 09:13:25;;;;;;;3.50;2.97;;;17.50;64.10;;;;;;5014743;28;20523;-63
2022/05/01 09:15:55;;;;;;;3.93;3.40;;;17.50;64.00;;;;;;5014991;28;20489;-63
2022/05/01 09:18:26;;;;;;;5.70;3.37;;;17.50;63.80;;;;;;5014386;28;20483;-63
2022/05/01 09:21:07;;;;;;;4.13;2.97;;;17.40;63.70;;;;;;5015004;28;20504;-63
2022/05/01 09:23:41;;;;;;;4.17;2.33;;;17.40;63.40;;;;;;5014833;28;20463;-63
2022/05/01 09:26:13;;;;;;;4.60;2.73;;;17.40;63.70;;;;;;5014810;28;20560;-63
2022/05/01 09:28:51;;;;;;;4.20;2.50;;;17.40;63.50;;;;;;5014211;28;20475;-63
2022/05/01 09:31:22;;;;;;;3.33;2.10;;;17.40;63.60;;;;;;5014316;28;20485;-62
2022/05/01 09:33:52;;;;;;;2.07;1.97;;;17.40;63.40;;;;;;5014769;28;20469;-62
2022/05/01 09:36:37;;;;;;;5.00;2.57;;;17.40;63.40;;;;;;5014166;28;20471;-63
2022/05/01 09:39:07;;;;;;;4.20;2.57;;;17.50;63.20;;;;;;5014830;28;20544;-62
2022/05/01 09:41:42;;;;;;;4.77;3.20;;;17.50;62.10;;;;;;5014089;28;20478;-62
2022/05/01 09:44:16;;;;;;;2.70;2.50;;;17.50;62.30;;;;;;5014582;28;20476;-64
2022/05/01 09:46:50;;;;;;;4.77;2.30;;;17.60;61.70;;;;;;5014409;28;20458;-63
2022/05/01 09:49:20;;;;;;;3.93;2.43;;;17.60;61.80;;;;;;5014523;28;20476;-63
2022/05/01 09:51:56;;;;;;;3.17;2.87;;;17.60;61.10;;;;;;5014073;28;20529;-63
2022/05/01 09:54:27;;;;;;;2.60;2.03;;;17.70;60.40;;;;;;5014185;28;20478;-63
2022/05/01 09:56:59;;;;;;;2.30;2.00;;;17.70;60.20;;;;;;5014146;28;20510;-63
2022/05/01 09:59:29;;;;;;;2.40;1.80;;;17.70;60.00;;;;;;5013668;28;20461;-64
2022/05/01 10:02:00;;;;;;;7.43;2.40;;;17.60;60.00;;;;;;5014165;28;20472;-62
2022/05/01 10:04:27;;;;;;;4.13;2.60;;;17.60;59.90;;;;;;5013736;28;20542;-63
2022/05/01 10:06:56;;;;;;;2.80;2.60;;;17.50;59.60;;;;;;5014351;28;20991;-63
2022/05/01 10:09:27;;;;;;;2.23;2.00;;;17.60;59.40;;;;;;5013955;28;20889;-63
2022/05/01 10:11:58;;;;;;;5.27;2.50;;;17.50;59.40;;;;;;5013731;28;21181;-63
2022/05/01 10:14:29;;;;;;;4.03;2.30;;;17.60;59.30;;;;;;5013766;28;20466;-63
2022/05/01 10:16:58;;;;;;;2.90;2.40;;;17.60;58.70;;;;;;5013939;28;20852;-63
2022/05/01 10:19:26;;;;;;;2.60;2.40;;;17.50;58.80;;;;;;5014307;28;20464;-64
2022/05/01 10:21:57;;;;;;;2.30;1.73;;;17.50;58.90;;;;;;5013537;28;20464;-64
2022/05/01 10:24:26;;;;;;;5.63;2.33;;;17.50;58.90;;;;;;5013941;28;20804;-63
2022/05/01 10:26:59;;;;;;;5.20;2.20;;;17.40;58.80;;;;;;5013695;28;20512;-63
2022/05/01 10:32:21;;;;;;;5.30;2.20;;;17.40;58.80;;;;;;5013701;28;20531;-63
2022/05/01 10:32:48;;;;;;;4.20;2.10;;;17.40;59.00;;;;;;5013384;28;20464;-63
2022/05/01 10:35:47;;;;;;;2.70;1.70;;;17.40;59.10;;;;;;5013232;28;20488;-63
2022/05/01 10:38:28;;;;;;;4.10;1.97;;;17.40;59.10;;;;;;5012872;28;20492;-63
2022/05/01 10:40:58;;;;;;;2.80;1.90;;;17.40;59.20;;;;;;5013748;28;20972;-64
2022/05/01 10:43:30;;;;;;;2.20;2.00;;;17.40;59.20;;;;;;5013113;28;20476;-64
2022/05/01 10:46:00;;;;;;;5.97;3.03;;;17.40;59.60;;;;;;5013865;28;20470;-64
2022/05/01 10:48:39;;;;;;;2.90;2.70;;;17.40;59.70;;;;;;5013219;28;20553;-63
2022/05/01 10:51:44;;;;;;;3.20;2.50;;;17.40;59.60;;;;;;5013569;28;20529;-63
2022/05/01 10:54:39;;;;;;;2.50;2.23;;;17.50;59.40;;;;;;5013491;28;20535;-64
2022/05/01 10:57:18;;;;;;;2.60;2.40;;;17.40;58.80;;;;;;5012949;28;20556;-63
2022/05/01 11:00:10;;;;;;;2.17;2.07;;;17.40;58.90;;;;;;5013579;28;20601;-63
2022/05/01 11:02:48;;;;;;;2.30;2.10;;;17.50;58.80;;;;;;5012711;28;20469;-63
2022/05/01 11:05:43;;;;;;;2.20;2.07;;;17.50;59.50;;;;;;5013356;28;20470;-63
2022/05/01 11:08:15;;;;;;;3.63;2.00;;;17.50;59.50;;;;;;5012998;28;20796;-62
2022/05/01 11:10:43;;;;;;;4.57;2.57;;;17.50;58.90;;;;;;5013231;28;20468;-63
2022/05/01 11:13:15;;;;;;;3.20;2.10;;;17.50;58.80;;;;;;5012799;28;20470;-63
2022/05/01 11:15:49;;;;;;;2.40;2.20;;;17.50;59.00;;;;;;5013057;28;20976;-63
2022/05/01 11:18:17;;;;;;;2.43;2.23;;;17.50;59.10;;;;;;5013181;28;21371;-64
2022/05/01 11:20:46;;;;;;;3.40;2.80;;;17.50;59.30;;;;;;5013189;28;20984;-64
2022/05/01 11:23:29;;;;;;;2.70;2.50;;;17.60;59.30;;;;;;5012806;28;21009;-63
2022/05/01 11:26:14;;;;;;;2.80;2.60;;;17.60;59.50;;;;;;5012711;28;20506;-64
2022/05/01 11:28:46;;;;;;;4.00;3.10;;;17.70;59.30;;;;;;5013238;28;20530;-64
2022/05/01 11:31:50;;;;;;;5.33;3.07;;;17.70;59.40;;;;;;5012743;28;20460;-64
2022/05/01 11:34:32;;;;;;;3.97;3.37;;;17.70;59.30;;;;;;5012679;28;20996;-63
2022/05/01 11:37:02;;;;;;;4.40;2.33;;;17.80;59.20;;;;;;5012874;28;20807;-63
2022/05/01 11:40:02;;;;;;;3.67;3.00;;;17.80;59.40;;;;;;5013247;28;20780;-62
2022/05/01 11:42:33;;;;;;;4.33;2.40;;;17.80;59.30;;;;;;5013483;28;20470;-63
2022/05/01 11:45:01;;;;;;;4.77;2.70;;;17.80;58.80;;;;;;5012899;28;20470;-63
2022/05/01 11:47:33;;;;;;;3.13;2.70;;;17.80;58.90;;;;;;5013325;28;20471;-63
2022/05/01 11:50:00;;;;;;;3.53;3.20;;;17.80;58.60;;;;;;5013307;28;20470;-63
2022/05/01 11:52:27;;;;;;;3.07;2.87;;;17.80;58.60;;;;;;5016843;28;20473;-63
2022/05/01 11:54:56;;;;;;;3.00;2.50;;;17.80;58.60;;;;;;5016329;28;20517;-63
2022/05/01 12:02:58;;;;;;;2.60;2.40;;;17.80;57.80;;;;;;5016128;28;20550;-63
2022/05/01 12:05:26;;;;;;;7.30;3.00;;;17.80;57.70;;;;;;5016636;28;20786;-63
2022/05/01 12:07:56;;;;;;;3.00;2.70;;;17.90;57.60;;;;;;5016021;28;20462;-63
2022/05/01 12:10:23;;;;;;;3.33;2.87;;;17.90;57.60;;;;;;5016537;28;20516;-63
2022/05/01 12:12:50;;;;;;;2.63;2.40;;;17.90;57.30;;;;;;5015857;28;20489;-63
2022/05/01 12:15:17;;;;;;;4.63;2.83;;;17.90;57.50;;;;;;5016068;28;20471;-63
2022/05/01 12:17:45;;;;;;;3.57;2.87;;;17.90;57.50;;;;;;5016135;28;20989;-63
2022/05/01 12:20:13;;;;;;;6.10;3.20;;;18.00;57.30;;;;;;5016036;28;20460;-63
2022/05/01 12:22:40;;;;;;;4.23;3.20;;;18.00;57.00;;;;;;5016236;28;20473;-63
2022/05/01 12:25:10;;;;;;;4.33;2.70;;;18.00;57.10;;;;;;5015736;28;20458;-63
2022/05/01 12:27:40;;;;;;;3.60;2.70;;;18.00;57.20;;;;;;5016091;28;20971;-64
2022/05/01 12:30:08;;;;;;;3.30;3.10;;;17.90;56.90;;;;;;5015603;28;20944;-64
2022/05/01 12:32:37;;;;;;;3.23;2.20;;;17.80;57.10;;;;;;5015920;28;20535;-64
2022/05/01 12:35:06;;;;;;;5.40;3.07;;;17.80;57.20;;;;;;5015346;28;20578;-63
2022/05/01 12:37:37;;;;;;;3.17;2.87;;;17.80;57.90;;;;;;5016002;28;20471;-64
2022/05/01 12:40:09;;;;;;;10.23;3.17;;;17.80;57.50;;;;;;5015424;28;20471;-63
2022/05/01 12:45:36;;;;;;;3.70;2.23;;;17.80;57.90;;;;;;5016242;28;20530;-63
2022/05/01 12:48:05;;;;;;;4.00;2.90;;;17.80;57.80;;;;;;5015655;28;20528;-63
2022/05/01 12:50:32;;;;;;;5.93;3.07;;;17.80;57.60;;;;;;5015670;28;20848;-63
2022/05/01 12:53:20;;;;;;;2.33;2.13;;;17.80;58.00;;;;;;5015175;28;20527;-63
2022/05/01 12:55:48;;;;;;;3.40;3.03;;;17.80;58.30;;;;;;5015149;28;20878;-64
2022/05/01 12:58:15;;;;;;;4.70;2.40;;;17.70;58.30;;;;;;5015726;28;20473;-64
2022/05/01 13:00:44;;;;;;;5.23;2.50;;;17.70;58.70;;;;;;5015135;28;20548;-63
2022/05/01 13:03:16;;;;;;;15.00;3.87;;;17.80;59.30;;;;;;5014819;28;20491;-64
2022/05/01 13:05:43;;;;;;;4.40;2.50;;;17.70;59.20;;;;;;5014936;28;20503;-63
2022/05/01 13:08:19;;;;;;;2.90;2.70;;;17.70;59.10;;;;;;5015616;28;20463;-64
2022/05/01 13:11:10;;;;;;;3.03;2.73;;;17.70;59.20;;;;;;5014844;28;20948;-64
2022/05/01 13:13:49;;;;;;;2.50;2.20;;;17.70;59.10;;;;;;5015147;28;20461;-63
2022/05/01 13:16:19;;;;;;;2.70;2.27;;;17.70;58.50;;;;;;5015667;28;20470;-64
2022/05/01 13:18:46;;;;;;;3.40;2.20;;;17.60;57.90;;;;;;5014952;28;20457;-64
2022/05/01 13:21:13;;;;;;;3.20;2.00;;;17.60;57.40;;;;;;5014738;28;20474;-64
2022/05/01 13:23:42;;;;;;;2.57;1.80;;;17.60;57.50;;;;;;5014365;28;20465;-64
2022/05/01 13:26:09;;;;;;;4.23;2.20;;;17.60;57.60;;;;;;5014890;28;20470;-64